sensor_id;sensor_type;location;lat;lon;timestamp;P1;durP1;ratioP1;P2;durP2;ratioP2
22040;SDS011;11184;52.444;13.578;2023-04-25T00:01:54;3.92;;;3.38;;
22040;SDS011;11184;52.444;13.578;2023-04-25T00:04:40;5.50;;;3.33;;
22040;SDS011;11184;52.444;13.578;2023-04-25T00:07:25;4.68;;;3.05;;
22040;SDS011;11184;52.444;13.578;2023-04-25T00:10:09;3.65;;;2.67;;
22040;SDS011;11184;52.444;13.578;2023-04-25T00:12:57;5.45;;;3.05;;
22040;SDS011;11184;52.444;13.578;2023-04-25T00:15:42;3.88;;;2.88;;
22040;SDS011;11184;52.444;13.578;2023-04-25T00:18:26;2.47;;;2.28;;
22040;SDS011;11184;52.444;13.578;2023-04-25T00:21:17;5.13;;;3.03;;
22040;SDS011;11184;52.444;13.578;2023-04-25T00:24:03;3.13;;;2.33;;
22040;SDS011;11184;52.444;13.578;2023-04-25T00:26:47;2.60;;;2.40;;
22040;SDS011;11184;52.444;13.578;2023-04-25T00:29:32;3.22;;;2.28;;
22040;SDS011;11184;52.444;13.578;2023-04-25T00:32:17;2.58;;;2.17;;
22040;SDS011;11184;52.444;13.578;2023-04-25T00:35:02;4.60;;;2.03;;
22040;SDS011;11184;52.444;13.578;2023-04-25T00:37:47;4.85;;;2.03;;
22040;SDS011;11184;52.444;13.578;2023-04-25T00:40:31;4.35;;;2.13;;
22040;SDS011;11184;52.444;13.578;2023-04-25T00:43:16;4.15;;;2.33;;
22040;SDS011;11184;52.444;13.578;2023-04-25T00:46:00;3.25;;;1.90;;
22040;SDS011;11184;52.444;13.578;2023-04-25T00:48:45;4.43;;;2.25;;
22040;SDS011;11184;52.444;13.578;2023-04-25T00:51:30;10.65;;;3.30;;
22040;SDS011;11184;52.444;13.578;2023-04-25T00:54:15;4.28;;;2.78;;
22040;SDS011;11184;52.444;13.578;2023-04-25T00:57:00;5.00;;;2.20;;
22040;SDS011;11184;52.444;13.578;2023-04-25T00:59:45;6.38;;;2.53;;
22040;SDS011;11184;52.444;13.578;2023-04-25T01:02:30;5.95;;;2.35;;
22040;SDS011;11184;52.444;13.578;2023-04-25T01:05:16;7.50;;;3.47;;
22040;SDS011;11184;52.444;13.578;2023-04-25T01:08:02;4.78;;;3.08;;
22040;SDS011;11184;52.444;13.578;2023-04-25T01:10:46;5.72;;;2.60;;
22040;SDS011;11184;52.444;13.578;2023-04-25T01:13:31;3.15;;;2.40;;
22040;SDS011;11184;52.444;13.578;2023-04-25T01:16:16;3.47;;;2.35;;
22040;SDS011;11184;52.444;13.578;2023-04-25T01:19:00;4.65;;;2.38;;
22040;SDS011;11184;52.444;13.578;2023-04-25T01:21:45;5.78;;;3.60;;
22040;SDS011;11184;52.444;13.578;2023-04-25T01:24:33;4.57;;;3.28;;
22040;SDS011;11184;52.444;13.578;2023-04-25T01:27:18;6.45;;;3.10;;
22040;SDS011;11184;52.444;13.578;2023-04-25T01:30:04;8.38;;;3.75;;
22040;SDS011;11184;52.444;13.578;2023-04-25T01:32:49;4.57;;;2.38;;
22040;SDS011;11184;52.444;13.578;2023-04-25T01:35:34;6.82;;;3.58;;
22040;SDS011;11184;52.444;13.578;2023-04-25T01:38:18;4.13;;;3.03;;
22040;SDS011;11184;52.444;13.578;2023-04-25T01:41:03;5.20;;;2.83;;
22040;SDS011;11184;52.444;13.578;2023-04-25T01:43:49;5.20;;;3.10;;
22040;SDS011;11184;52.444;13.578;2023-04-25T01:46:34;5.15;;;2.90;;
22040;SDS011;11184;52.444;13.578;2023-04-25T01:49:19;5.85;;;3.05;;
22040;SDS011;11184;52.444;13.578;2023-04-25T01:52:03;5.25;;;3.40;;
22040;SDS011;11184;52.444;13.578;2023-04-25T01:54:48;4.60;;;2.95;;
22040;SDS011;11184;52.444;13.578;2023-04-25T01:57:34;8.55;;;2.67;;
22040;SDS011;11184;52.444;13.578;2023-04-25T02:00:19;3.53;;;2.53;;
22040;SDS011;11184;52.444;13.578;2023-04-25T02:03:04;6.38;;;3.40;;
22040;SDS011;11184;52.444;13.578;2023-04-25T02:05:49;6.10;;;2.50;;
22040;SDS011;11184;52.444;13.578;2023-04-25T02:08:34;4.93;;;2.72;;
22040;SDS011;11184;52.444;13.578;2023-04-25T02:11:21;3.30;;;2.72;;
22040;SDS011;11184;52.444;13.578;2023-04-25T02:14:05;8.73;;;3.75;;
22040;SDS011;11184;52.444;13.578;2023-04-25T02:16:50;10.00;;;3.80;;
22040;SDS011;11184;52.444;13.578;2023-04-25T02:19:35;6.63;;;2.70;;
22040;SDS011;11184;52.444;13.578;2023-04-25T02:22:19;5.95;;;4.03;;
22040;SDS011;11184;52.444;13.578;2023-04-25T02:25:04;3.72;;;2.58;;
22040;SDS011;11184;52.444;13.578;2023-04-25T02:27:49;8.80;;;3.25;;
22040;SDS011;11184;52.444;13.578;2023-04-25T02:30:34;7.28;;;3.13;;
22040;SDS011;11184;52.444;13.578;2023-04-25T02:33:19;8.05;;;2.67;;
22040;SDS011;11184;52.444;13.578;2023-04-25T02:36:04;11.65;;;4.10;;
22040;SDS011;11184;52.444;13.578;2023-04-25T02:38:49;12.50;;;2.90;;
22040;SDS011;11184;52.444;13.578;2023-04-25T02:41:34;3.13;;;2.63;;
22040;SDS011;11184;52.444;13.578;2023-04-25T02:44:19;4.55;;;2.90;;
22040;SDS011;11184;52.444;13.578;2023-04-25T02:47:03;6.43;;;4.18;;
22040;SDS011;11184;52.444;13.578;2023-04-25T02:49:48;8.65;;;3.20;;
22040;SDS011;11184;52.444;13.578;2023-04-25T02:52:32;7.63;;;3.72;;
22040;SDS011;11184;52.444;13.578;2023-04-25T02:55:17;7.32;;;3.85;;
22040;SDS011;11184;52.444;13.578;2023-04-25T02:58:01;7.43;;;4.15;;
22040;SDS011;11184;52.444;13.578;2023-04-25T03:00:46;5.97;;;4.38;;
22040;SDS011;11184;52.444;13.578;2023-04-25T03:03:31;5.22;;;3.00;;
22040;SDS011;11184;52.444;13.578;2023-04-25T03:06:16;7.32;;;3.53;;
22040;SDS011;11184;52.444;13.578;2023-04-25T03:09:00;5.10;;;4.57;;
22040;SDS011;11184;52.444;13.578;2023-04-25T03:11:45;7.95;;;4.03;;
22040;SDS011;11184;52.444;13.578;2023-04-25T03:14:29;6.60;;;4.20;;
22040;SDS011;11184;52.444;13.578;2023-04-25T03:17:14;12.77;;;7.30;;
22040;SDS011;11184;52.444;13.578;2023-04-25T03:19:59;5.43;;;3.83;;
22040;SDS011;11184;52.444;13.578;2023-04-25T03:22:44;5.97;;;3.13;;
22040;SDS011;11184;52.444;13.578;2023-04-25T03:25:29;23.65;;;4.40;;
22040;SDS011;11184;52.444;13.578;2023-04-25T03:28:14;6.82;;;3.97;;
22040;SDS011;11184;52.444;13.578;2023-04-25T03:30:59;8.40;;;4.18;;
22040;SDS011;11184;52.444;13.578;2023-04-25T03:33:43;4.13;;;3.72;;
22040;SDS011;11184;52.444;13.578;2023-04-25T03:36:28;5.88;;;3.88;;
22040;SDS011;11184;52.444;13.578;2023-04-25T03:39:13;12.93;;;4.22;;
22040;SDS011;11184;52.444;13.578;2023-04-25T03:41:57;6.57;;;3.88;;
22040;SDS011;11184;52.444;13.578;2023-04-25T03:44:42;6.45;;;4.32;;
22040;SDS011;11184;52.444;13.578;2023-04-25T03:47:27;6.07;;;3.42;;
22040;SDS011;11184;52.444;13.578;2023-04-25T03:50:11;7.32;;;4.22;;
22040;SDS011;11184;52.444;13.578;2023-04-25T03:52:56;5.95;;;3.47;;
22040;SDS011;11184;52.444;13.578;2023-04-25T03:55:40;14.80;;;4.18;;
22040;SDS011;11184;52.444;13.578;2023-04-25T03:58:25;5.75;;;3.72;;
22040;SDS011;11184;52.444;13.578;2023-04-25T04:01:10;5.97;;;3.92;;
22040;SDS011;11184;52.444;13.578;2023-04-25T04:03:54;6.25;;;4.80;;
22040;SDS011;11184;52.444;13.578;2023-04-25T04:06:39;8.20;;;4.25;;
22040;SDS011;11184;52.444;13.578;2023-04-25T04:09:24;9.70;;;3.95;;
22040;SDS011;11184;52.444;13.578;2023-04-25T04:12:09;11.30;;;4.95;;
22040;SDS011;11184;52.444;13.578;2023-04-25T04:14:54;10.68;;;5.18;;
22040;SDS011;11184;52.444;13.578;2023-04-25T04:17:39;7.05;;;4.25;;
22040;SDS011;11184;52.444;13.578;2023-04-25T04:20:24;6.75;;;4.47;;
22040;SDS011;11184;52.444;13.578;2023-04-25T04:23:09;8.07;;;3.97;;
22040;SDS011;11184;52.444;13.578;2023-04-25T04:25:54;3.85;;;3.53;;
22040;SDS011;11184;52.444;13.578;2023-04-25T04:28:39;13.95;;;4.05;;
22040;SDS011;11184;52.444;13.578;2023-04-25T04:31:24;6.70;;;4.95;;
22040;SDS011;11184;52.444;13.578;2023-04-25T04:34:08;7.95;;;5.18;;
22040;SDS011;11184;52.444;13.578;2023-04-25T04:36:54;8.07;;;4.45;;
22040;SDS011;11184;52.444;13.578;2023-04-25T04:39:39;4.38;;;3.97;;
22040;SDS011;11184;52.444;13.578;2023-04-25T04:42:24;7.55;;;4.45;;
22040;SDS011;11184;52.444;13.578;2023-04-25T04:45:09;5.90;;;4.43;;
22040;SDS011;11184;52.444;13.578;2023-04-25T04:47:54;5.90;;;4.75;;
22040;SDS011;11184;52.444;13.578;2023-04-25T04:50:39;7.22;;;4.75;;
22040;SDS011;11184;52.444;13.578;2023-04-25T04:53:23;6.43;;;4.95;;
22040;SDS011;11184;52.444;13.578;2023-04-25T04:56:08;6.75;;;4.80;;
22040;SDS011;11184;52.444;13.578;2023-04-25T04:58:53;7.65;;;4.25;;
22040;SDS011;11184;52.444;13.578;2023-04-25T05:01:37;7.22;;;3.80;;
22040;SDS011;11184;52.444;13.578;2023-04-25T05:04:22;8.05;;;5.47;;
22040;SDS011;11184;52.444;13.578;2023-04-25T05:07:07;8.35;;;5.05;;
22040;SDS011;11184;52.444;13.578;2023-04-25T05:09:51;10.65;;;4.65;;
22040;SDS011;11184;52.444;13.578;2023-04-25T05:12:36;6.20;;;5.28;;
22040;SDS011;11184;52.444;13.578;2023-04-25T05:15:21;5.65;;;3.90;;
22040;SDS011;11184;52.444;13.578;2023-04-25T05:18:05;8.35;;;5.20;;
22040;SDS011;11184;52.444;13.578;2023-04-25T05:20:50;6.53;;;4.63;;
22040;SDS011;11184;52.444;13.578;2023-04-25T05:23:35;6.28;;;5.03;;
22040;SDS011;11184;52.444;13.578;2023-04-25T05:26:19;14.98;;;8.05;;
22040;SDS011;11184;52.444;13.578;2023-04-25T05:29:04;7.05;;;4.72;;
22040;SDS011;11184;52.444;13.578;2023-04-25T05:31:48;7.97;;;6.20;;
22040;SDS011;11184;52.444;13.578;2023-04-25T05:34:33;7.95;;;5.32;;
22040;SDS011;11184;52.444;13.578;2023-04-25T05:37:18;13.15;;;6.28;;
22040;SDS011;11184;52.444;13.578;2023-04-25T05:40:03;7.13;;;4.63;;
22040;SDS011;11184;52.444;13.578;2023-04-25T05:42:50;7.85;;;4.82;;
22040;SDS011;11184;52.444;13.578;2023-04-25T05:45:35;9.48;;;5.13;;
22040;SDS011;11184;52.444;13.578;2023-04-25T05:48:19;7.50;;;4.82;;
22040;SDS011;11184;52.444;13.578;2023-04-25T05:51:04;9.90;;;4.13;;
22040;SDS011;11184;52.444;13.578;2023-04-25T05:53:49;9.13;;;3.75;;
22040;SDS011;11184;52.444;13.578;2023-04-25T05:56:34;8.15;;;4.18;;
22040;SDS011;11184;52.444;13.578;2023-04-25T05:59:18;10.85;;;4.32;;
22040;SDS011;11184;52.444;13.578;2023-04-25T06:02:03;7.68;;;4.72;;
22040;SDS011;11184;52.444;13.578;2023-04-25T06:04:51;6.00;;;3.30;;
22040;SDS011;11184;52.444;13.578;2023-04-25T06:07:36;4.53;;;3.15;;
22040;SDS011;11184;52.444;13.578;2023-04-25T06:10:21;7.40;;;4.97;;
22040;SDS011;11184;52.444;13.578;2023-04-25T06:13:06;7.07;;;4.05;;
22040;SDS011;11184;52.444;13.578;2023-04-25T06:15:50;17.15;;;5.25;;
22040;SDS011;11184;52.444;13.578;2023-04-25T06:18:35;9.57;;;4.88;;
22040;SDS011;11184;52.444;13.578;2023-04-25T06:21:19;9.65;;;5.28;;
22040;SDS011;11184;52.444;13.578;2023-04-25T06:24:04;7.15;;;4.70;;
22040;SDS011;11184;52.444;13.578;2023-04-25T06:26:49;7.80;;;5.40;;
22040;SDS011;11184;52.444;13.578;2023-04-25T06:29:33;12.95;;;6.13;;
22040;SDS011;11184;52.444;13.578;2023-04-25T06:32:18;9.43;;;5.97;;
22040;SDS011;11184;52.444;13.578;2023-04-25T06:35:03;9.45;;;4.93;;
22040;SDS011;11184;52.444;13.578;2023-04-25T06:37:47;8.20;;;4.53;;
22040;SDS011;11184;52.444;13.578;2023-04-25T06:40:32;10.27;;;6.28;;
22040;SDS011;11184;52.444;13.578;2023-04-25T06:43:17;8.02;;;5.35;;
22040;SDS011;11184;52.444;13.578;2023-04-25T06:46:01;8.38;;;6.38;;
22040;SDS011;11184;52.444;13.578;2023-04-25T06:48:46;11.38;;;6.15;;
22040;SDS011;11184;52.444;13.578;2023-04-25T06:51:30;12.30;;;5.97;;
22040;SDS011;11184;52.444;13.578;2023-04-25T06:54:15;6.80;;;5.25;;
22040;SDS011;11184;52.444;13.578;2023-04-25T06:57:01;17.20;;;5.93;;
22040;SDS011;11184;52.444;13.578;2023-04-25T06:59:46;14.40;;;6.22;;
22040;SDS011;11184;52.444;13.578;2023-04-25T07:02:30;8.05;;;3.97;;
22040;SDS011;11184;52.444;13.578;2023-04-25T07:05:15;12.80;;;4.97;;
22040;SDS011;11184;52.444;13.578;2023-04-25T07:08:00;7.47;;;5.28;;
22040;SDS011;11184;52.444;13.578;2023-04-25T07:10:44;8.75;;;5.10;;
22040;SDS011;11184;52.444;13.578;2023-04-25T07:13:29;10.43;;;5.25;;
22040;SDS011;11184;52.444;13.578;2023-04-25T07:16:14;11.60;;;5.57;;
22040;SDS011;11184;52.444;13.578;2023-04-25T07:19:00;7.22;;;5.13;;
22040;SDS011;11184;52.444;13.578;2023-04-25T07:21:44;7.53;;;5.43;;
22040;SDS011;11184;52.444;13.578;2023-04-25T07:24:29;6.40;;;4.90;;
22040;SDS011;11184;52.444;13.578;2023-04-25T07:27:14;6.72;;;4.20;;
22040;SDS011;11184;52.444;13.578;2023-04-25T07:29:58;4.43;;;3.78;;
22040;SDS011;11184;52.444;13.578;2023-04-25T07:32:43;8.18;;;4.60;;
22040;SDS011;11184;52.444;13.578;2023-04-25T07:35:29;8.77;;;4.38;;
22040;SDS011;11184;52.444;13.578;2023-04-25T07:38:13;4.00;;;3.60;;
22040;SDS011;11184;52.444;13.578;2023-04-25T07:40:58;6.45;;;3.70;;
22040;SDS011;11184;52.444;13.578;2023-04-25T07:43:43;5.15;;;3.60;;
22040;SDS011;11184;52.444;13.578;2023-04-25T07:46:27;5.68;;;2.97;;
22040;SDS011;11184;52.444;13.578;2023-04-25T07:49:12;6.57;;;3.75;;
22040;SDS011;11184;52.444;13.578;2023-04-25T07:51:56;6.75;;;3.53;;
22040;SDS011;11184;52.444;13.578;2023-04-25T07:54:41;6.53;;;4.22;;
22040;SDS011;11184;52.444;13.578;2023-04-25T07:57:26;5.65;;;3.63;;
22040;SDS011;11184;52.444;13.578;2023-04-25T08:00:11;7.18;;;3.30;;
22040;SDS011;11184;52.444;13.578;2023-04-25T08:02:56;8.70;;;3.95;;
22040;SDS011;11184;52.444;13.578;2023-04-25T08:05:40;10.73;;;4.32;;
22040;SDS011;11184;52.444;13.578;2023-04-25T08:08:25;16.95;;;4.90;;
22040;SDS011;11184;52.444;13.578;2023-04-25T08:11:09;15.07;;;5.15;;
22040;SDS011;11184;52.444;13.578;2023-04-25T08:13:54;11.50;;;4.47;;
22040;SDS011;11184;52.444;13.578;2023-04-25T08:16:39;7.85;;;3.58;;
22040;SDS011;11184;52.444;13.578;2023-04-25T08:19:23;18.10;;;3.72;;
22040;SDS011;11184;52.444;13.578;2023-04-25T08:22:08;15.32;;;4.30;;
22040;SDS011;11184;52.444;13.578;2023-04-25T08:24:53;13.65;;;5.43;;
22040;SDS011;11184;52.444;13.578;2023-04-25T08:27:37;16.75;;;5.72;;
22040;SDS011;11184;52.444;13.578;2023-04-25T08:30:22;9.15;;;4.50;;
22040;SDS011;11184;52.444;13.578;2023-04-25T08:33:06;14.18;;;4.50;;
22040;SDS011;11184;52.444;13.578;2023-04-25T08:35:51;15.35;;;4.72;;
22040;SDS011;11184;52.444;13.578;2023-04-25T08:38:36;8.77;;;3.80;;
22040;SDS011;11184;52.444;13.578;2023-04-25T08:41:21;10.73;;;3.97;;
22040;SDS011;11184;52.444;13.578;2023-04-25T08:44:06;13.55;;;4.32;;
22040;SDS011;11184;52.444;13.578;2023-04-25T08:46:52;10.23;;;4.60;;
22040;SDS011;11184;52.444;13.578;2023-04-25T08:49:38;16.60;;;4.95;;
22040;SDS011;11184;52.444;13.578;2023-04-25T08:52:24;16.23;;;4.05;;
22040;SDS011;11184;52.444;13.578;2023-04-25T08:55:12;10.13;;;3.70;;
22040;SDS011;11184;52.444;13.578;2023-04-25T08:57:57;15.18;;;5.03;;
22040;SDS011;11184;52.444;13.578;2023-04-25T09:00:42;12.05;;;5.35;;
22040;SDS011;11184;52.444;13.578;2023-04-25T09:03:26;11.85;;;3.10;;
22040;SDS011;11184;52.444;13.578;2023-04-25T09:06:11;11.00;;;4.10;;
22040;SDS011;11184;52.444;13.578;2023-04-25T09:09:02;11.15;;;3.55;;
22040;SDS011;11184;52.444;13.578;2023-04-25T09:11:48;14.63;;;3.83;;
22040;SDS011;11184;52.444;13.578;2023-04-25T09:14:33;7.95;;;3.05;;
22040;SDS011;11184;52.444;13.578;2023-04-25T09:17:17;16.13;;;3.45;;
22040;SDS011;11184;52.444;13.578;2023-04-25T09:20:09;14.77;;;3.33;;
22040;SDS011;11184;52.444;13.578;2023-04-25T09:23:01;9.23;;;3.13;;
22040;SDS011;11184;52.444;13.578;2023-04-25T09:25:47;11.35;;;3.55;;
22040;SDS011;11184;52.444;13.578;2023-04-25T09:28:31;12.75;;;3.13;;
22040;SDS011;11184;52.444;13.578;2023-04-25T09:31:22;19.52;;;3.30;;
22040;SDS011;11184;52.444;13.578;2023-04-25T09:34:07;18.08;;;3.13;;
22040;SDS011;11184;52.444;13.578;2023-04-25T09:36:55;14.45;;;4.13;;
22040;SDS011;11184;52.444;13.578;2023-04-25T09:39:40;6.78;;;3.30;;
22040;SDS011;11184;52.444;13.578;2023-04-25T09:42:26;5.43;;;2.72;;
22040;SDS011;11184;52.444;13.578;2023-04-25T09:45:12;9.82;;;2.75;;
22040;SDS011;11184;52.444;13.578;2023-04-25T09:48:02;9.40;;;3.15;;
22040;SDS011;11184;52.444;13.578;2023-04-25T09:51:03;7.72;;;2.95;;
22040;SDS011;11184;52.444;13.578;2023-04-25T09:53:48;9.40;;;2.72;;
22040;SDS011;11184;52.444;13.578;2023-04-25T09:56:36;6.35;;;2.42;;
22040;SDS011;11184;52.444;13.578;2023-04-25T09:59:21;15.65;;;3.17;;
22040;SDS011;11184;52.444;13.578;2023-04-25T10:02:07;8.13;;;2.97;;
22040;SDS011;11184;52.444;13.578;2023-04-25T10:04:53;11.27;;;2.90;;
22040;SDS011;11184;52.444;13.578;2023-04-25T10:07:38;10.45;;;3.15;;
22040;SDS011;11184;52.444;13.578;2023-04-25T10:10:23;12.80;;;2.90;;
22040;SDS011;11184;52.444;13.578;2023-04-25T10:13:10;10.93;;;2.90;;
22040;SDS011;11184;52.444;13.578;2023-04-25T10:15:58;10.02;;;3.17;;
22040;SDS011;11184;52.444;13.578;2023-04-25T10:18:46;13.05;;;2.97;;
22040;SDS011;11184;52.444;13.578;2023-04-25T10:21:30;9.65;;;3.22;;
22040;SDS011;11184;52.444;13.578;2023-04-25T10:24:16;11.13;;;2.78;;
22040;SDS011;11184;52.444;13.578;2023-04-25T10:27:01;14.18;;;4.10;;
22040;SDS011;11184;52.444;13.578;2023-04-25T10:29:46;9.25;;;3.17;;
22040;SDS011;11184;52.444;13.578;2023-04-25T10:32:44;9.57;;;2.45;;
22040;SDS011;11184;52.444;13.578;2023-04-25T10:35:29;10.75;;;2.92;;
22040;SDS011;11184;52.444;13.578;2023-04-25T10:38:14;6.68;;;2.05;;
22040;SDS011;11184;52.444;13.578;2023-04-25T10:41:03;9.60;;;2.95;;
22040;SDS011;11184;52.444;13.578;2023-04-25T10:43:49;8.93;;;2.45;;
22040;SDS011;11184;52.444;13.578;2023-04-25T10:46:34;8.98;;;3.30;;
22040;SDS011;11184;52.444;13.578;2023-04-25T10:49:29;9.70;;;3.05;;
22040;SDS011;11184;52.444;13.578;2023-04-25T10:52:18;6.75;;;2.20;;
22040;SDS011;11184;52.444;13.578;2023-04-25T10:55:03;8.32;;;2.13;;
22040;SDS011;11184;52.444;13.578;2023-04-25T10:57:48;6.90;;;1.85;;
22040;SDS011;11184;52.444;13.578;2023-04-25T11:00:34;5.97;;;2.60;;
22040;SDS011;11184;52.444;13.578;2023-04-25T11:03:23;6.10;;;2.78;;
22040;SDS011;11184;52.444;13.578;2023-04-25T11:09:16;9.40;;;2.35;;
22040;SDS011;11184;52.444;13.578;2023-04-25T11:12:01;4.82;;;1.75;;
22040;SDS011;11184;52.444;13.578;2023-04-25T11:14:46;10.90;;;2.53;;
22040;SDS011;11184;52.444;13.578;2023-04-25T11:17:31;8.73;;;3.03;;
22040;SDS011;11184;52.444;13.578;2023-04-25T11:20:16;3.90;;;1.60;;
22040;SDS011;11184;52.444;13.578;2023-04-25T11:23:01;9.07;;;2.47;;
22040;SDS011;11184;52.444;13.578;2023-04-25T11:25:46;7.07;;;2.35;;
22040;SDS011;11184;52.444;13.578;2023-04-25T11:28:31;7.38;;;2.20;;
22040;SDS011;11184;52.444;13.578;2023-04-25T11:31:15;5.57;;;2.15;;
22040;SDS011;11184;52.444;13.578;2023-04-25T11:34:00;4.90;;;2.00;;
22040;SDS011;11184;52.444;13.578;2023-04-25T11:36:46;6.68;;;2.08;;
22040;SDS011;11184;52.444;13.578;2023-04-25T11:39:30;9.20;;;2.50;;
22040;SDS011;11184;52.444;13.578;2023-04-25T11:42:15;10.30;;;2.30;;
22040;SDS011;11184;52.444;13.578;2023-04-25T11:45:00;10.52;;;2.75;;
22040;SDS011;11184;52.444;13.578;2023-04-25T11:47:44;12.40;;;3.13;;
22040;SDS011;11184;52.444;13.578;2023-04-25T11:50:30;10.80;;;3.00;;
22040;SDS011;11184;52.444;13.578;2023-04-25T11:53:14;8.35;;;2.05;;
22040;SDS011;11184;52.444;13.578;2023-04-25T11:56:01;6.78;;;1.90;;
22040;SDS011;11184;52.444;13.578;2023-04-25T11:58:53;6.85;;;2.08;;
22040;SDS011;11184;52.444;13.578;2023-04-25T12:01:39;8.93;;;1.77;;
22040;SDS011;11184;52.444;13.578;2023-04-25T12:04:24;9.23;;;2.40;;
22040;SDS011;11184;52.444;13.578;2023-04-25T12:07:11;9.45;;;2.95;;
22040;SDS011;11184;52.444;13.578;2023-04-25T12:09:57;5.43;;;1.33;;
22040;SDS011;11184;52.444;13.578;2023-04-25T12:12:42;6.90;;;2.63;;
22040;SDS011;11184;52.444;13.578;2023-04-25T12:15:26;3.13;;;1.42;;
22040;SDS011;11184;52.444;13.578;2023-04-25T12:18:11;6.57;;;2.08;;
22040;SDS011;11184;52.444;13.578;2023-04-25T12:20:56;5.47;;;2.17;;
22040;SDS011;11184;52.444;13.578;2023-04-25T12:23:40;5.93;;;2.35;;
22040;SDS011;11184;52.444;13.578;2023-04-25T12:26:25;5.10;;;2.35;;
22040;SDS011;11184;52.444;13.578;2023-04-25T12:29:21;6.28;;;1.50;;
22040;SDS011;11184;52.444;13.578;2023-04-25T12:32:05;5.10;;;2.38;;
22040;SDS011;11184;52.444;13.578;2023-04-25T12:34:50;6.22;;;2.97;;
22040;SDS011;11184;52.444;13.578;2023-04-25T12:37:35;6.50;;;1.70;;
22040;SDS011;11184;52.444;13.578;2023-04-25T12:40:19;11.60;;;2.25;;
22040;SDS011;11184;52.444;13.578;2023-04-25T12:43:07;4.15;;;1.67;;
22040;SDS011;11184;52.444;13.578;2023-04-25T12:45:52;4.60;;;1.40;;
22040;SDS011;11184;52.444;13.578;2023-04-25T12:48:37;4.75;;;1.92;;
22040;SDS011;11184;52.444;13.578;2023-04-25T12:51:22;2.38;;;1.27;;
22040;SDS011;11184;52.444;13.578;2023-04-25T12:54:09;5.53;;;1.35;;
22040;SDS011;11184;52.444;13.578;2023-04-25T12:56:54;10.82;;;3.83;;
22040;SDS011;11184;52.444;13.578;2023-04-25T12:59:38;6.93;;;2.03;;
22040;SDS011;11184;52.444;13.578;2023-04-25T13:02:23;6.93;;;2.45;;
22040;SDS011;11184;52.444;13.578;2023-04-25T13:05:08;10.40;;;2.35;;
22040;SDS011;11184;52.444;13.578;2023-04-25T13:07:53;6.47;;;1.85;;
22040;SDS011;11184;52.444;13.578;2023-04-25T13:10:39;5.28;;;1.85;;
22040;SDS011;11184;52.444;13.578;2023-04-25T13:13:23;3.95;;;2.22;;
22040;SDS011;11184;52.444;13.578;2023-04-25T13:16:08;2.53;;;1.55;;
22040;SDS011;11184;52.444;13.578;2023-04-25T13:18:53;9.48;;;2.08;;
22040;SDS011;11184;52.444;13.578;2023-04-25T13:21:39;5.65;;;1.77;;
22040;SDS011;11184;52.444;13.578;2023-04-25T13:24:24;10.93;;;2.50;;
22040;SDS011;11184;52.444;13.578;2023-04-25T13:27:09;7.15;;;1.60;;
22040;SDS011;11184;52.444;13.578;2023-04-25T13:29:54;4.28;;;1.52;;
22040;SDS011;11184;52.444;13.578;2023-04-25T13:32:42;2.53;;;1.20;;
22040;SDS011;11184;52.444;13.578;2023-04-25T13:35:27;1.88;;;1.00;;
22040;SDS011;11184;52.444;13.578;2023-04-25T13:38:11;5.88;;;1.30;;
22040;SDS011;11184;52.444;13.578;2023-04-25T13:40:56;2.70;;;1.17;;
22040;SDS011;11184;52.444;13.578;2023-04-25T13:43:41;8.50;;;1.15;;
22040;SDS011;11184;52.444;13.578;2023-04-25T13:46:26;5.18;;;1.23;;
22040;SDS011;11184;52.444;13.578;2023-04-25T13:49:11;4.03;;;1.60;;
22040;SDS011;11184;52.444;13.578;2023-04-25T13:51:56;6.45;;;1.30;;
22040;SDS011;11184;52.444;13.578;2023-04-25T13:54:41;3.95;;;1.52;;
22040;SDS011;11184;52.444;13.578;2023-04-25T13:57:26;4.82;;;1.98;;
22040;SDS011;11184;52.444;13.578;2023-04-25T14:00:10;6.07;;;1.13;;
22040;SDS011;11184;52.444;13.578;2023-04-25T14:02:55;5.32;;;1.50;;
22040;SDS011;11184;52.444;13.578;2023-04-25T14:05:40;8.23;;;1.70;;
22040;SDS011;11184;52.444;13.578;2023-04-25T14:08:25;4.15;;;1.40;;
22040;SDS011;11184;52.444;13.578;2023-04-25T14:11:10;6.88;;;1.58;;
22040;SDS011;11184;52.444;13.578;2023-04-25T14:13:55;6.70;;;1.58;;
22040;SDS011;11184;52.444;13.578;2023-04-25T14:16:39;2.13;;;1.10;;
22040;SDS011;11184;52.444;13.578;2023-04-25T14:19:24;6.78;;;1.10;;
22040;SDS011;11184;52.444;13.578;2023-04-25T14:22:09;5.82;;;1.70;;
22040;SDS011;11184;52.444;13.578;2023-04-25T14:24:54;4.45;;;1.35;;
22040;SDS011;11184;52.444;13.578;2023-04-25T14:27:38;4.40;;;1.38;;
22040;SDS011;11184;52.444;13.578;2023-04-25T14:30:23;6.32;;;1.77;;
22040;SDS011;11184;52.444;13.578;2023-04-25T14:33:08;5.70;;;2.42;;
22040;SDS011;11184;52.444;13.578;2023-04-25T14:35:52;3.28;;;1.20;;
22040;SDS011;11184;52.444;13.578;2023-04-25T14:38:37;6.63;;;1.48;;
22040;SDS011;11184;52.444;13.578;2023-04-25T14:41:21;6.50;;;1.30;;
22040;SDS011;11184;52.444;13.578;2023-04-25T14:44:06;4.32;;;1.30;;
22040;SDS011;11184;52.444;13.578;2023-04-25T14:46:52;5.68;;;2.22;;
22040;SDS011;11184;52.444;13.578;2023-04-25T14:49:36;9.82;;;2.13;;
22040;SDS011;11184;52.444;13.578;2023-04-25T14:52:21;7.00;;;1.05;;
22040;SDS011;11184;52.444;13.578;2023-04-25T14:55:06;7.05;;;1.15;;
22040;SDS011;11184;52.444;13.578;2023-04-25T14:57:50;6.25;;;1.13;;
22040;SDS011;11184;52.444;13.578;2023-04-25T15:00:35;4.72;;;0.93;;
22040;SDS011;11184;52.444;13.578;2023-04-25T15:03:20;4.75;;;1.60;;
22040;SDS011;11184;52.444;13.578;2023-04-25T15:06:05;2.20;;;1.20;;
22040;SDS011;11184;52.444;13.578;2023-04-25T15:08:50;5.28;;;1.67;;
22040;SDS011;11184;52.444;13.578;2023-04-25T15:11:35;4.10;;;1.40;;
22040;SDS011;11184;52.444;13.578;2023-04-25T15:14:19;4.93;;;1.58;;
22040;SDS011;11184;52.444;13.578;2023-04-25T15:17:04;6.40;;;1.88;;
22040;SDS011;11184;52.444;13.578;2023-04-25T15:19:48;5.50;;;1.33;;
22040;SDS011;11184;52.444;13.578;2023-04-25T15:22:33;3.92;;;1.10;;
22040;SDS011;11184;52.444;13.578;2023-04-25T15:25:17;10.68;;;1.63;;
22040;SDS011;11184;52.444;13.578;2023-04-25T15:28:02;10.57;;;1.83;;
22040;SDS011;11184;52.444;13.578;2023-04-25T15:30:50;3.47;;;1.40;;
22040;SDS011;11184;52.444;13.578;2023-04-25T15:33:35;4.65;;;2.03;;
22040;SDS011;11184;52.444;13.578;2023-04-25T15:36:19;4.57;;;2.10;;
22040;SDS011;11184;52.444;13.578;2023-04-25T15:39:05;8.25;;;2.22;;
22040;SDS011;11184;52.444;13.578;2023-04-25T15:41:50;5.75;;;1.23;;
22040;SDS011;11184;52.444;13.578;2023-04-25T15:44:34;3.53;;;1.33;;
22040;SDS011;11184;52.444;13.578;2023-04-25T15:47:19;5.22;;;1.48;;
22040;SDS011;11184;52.444;13.578;2023-04-25T15:50:04;2.05;;;1.10;;
22040;SDS011;11184;52.444;13.578;2023-04-25T15:52:50;3.00;;;0.80;;
22040;SDS011;11184;52.444;13.578;2023-04-25T15:55:35;3.95;;;1.30;;
22040;SDS011;11184;52.444;13.578;2023-04-25T15:58:20;2.20;;;0.93;;
22040;SDS011;11184;52.444;13.578;2023-04-25T16:01:04;3.45;;;1.13;;
22040;SDS011;11184;52.444;13.578;2023-04-25T16:03:50;2.67;;;1.17;;
22040;SDS011;11184;52.444;13.578;2023-04-25T16:06:35;6.40;;;1.35;;
22040;SDS011;11184;52.444;13.578;2023-04-25T16:09:21;6.50;;;1.65;;
22040;SDS011;11184;52.444;13.578;2023-04-25T16:12:07;4.32;;;0.90;;
22040;SDS011;11184;52.444;13.578;2023-04-25T16:14:52;3.25;;;1.20;;
22040;SDS011;11184;52.444;13.578;2023-04-25T16:17:37;4.45;;;2.42;;
22040;SDS011;11184;52.444;13.578;2023-04-25T16:20:21;5.07;;;1.40;;